EFRO

Rovaniemi Airport

Rovaniemi, Finland
TAF EFRO 212336Z 2200/2224 31006KT CAVOK BECMG 2207/2209 22010KT BECMG 2213/2215 1500 SN VV010 BECMG 2215/2217 36010KT CAVOK
Issued Valid From Valid To
Jan-21 @ 23:36 UTC
(41 minutes ago)
Jan-22 @ 00:00 UTC
(17 minutes ago)
Jan-23 @ 00:00 UTC
(in 24 hours)
Jan-22 @ 00:00 to Jan-22 @ 07:00
TAF EFRO 212336Z 2200/2224 31006KT CAVOK
Wind Visibility Clouds Conditions
310° at 6 knots 10,000+ meters
  • No significant clouds
Becoming Jan-22 @ 07:00 to Jan-22 @ 13:00
BECMG 2207/2209 22010KT
Wind Visibility Clouds Conditions
220° at 10 knots 10,000+ meters
  • No significant clouds
Becoming Jan-22 @ 13:00 to Jan-22 @ 15:00
BECMG 2213/2215 1500 SN VV010
Wind Visibility Clouds Conditions
220° at 10 knots 1,497 meters
  • Vertical visibility at 1,000' AGL
  • Snow
Becoming Jan-22 @ 15:00 to Jan-23 @ 00:00
BECMG 2215/2217 36010KT CAVOK
Wind Visibility Clouds Conditions
360° at 10 knots 10,000+ meters
  • No significant clouds
TAF EFRO 212336Z 2200/2224 31006KT CAVOK BECMG 2207/2209 22010KT BECMG 2213/2215 1500 SN VV010 BECMG 2215/2217 36010KT CAVOK
Issued Jan-21 @ 23:36 UTC
(41 minutes ago)
Valid From Jan-22 @ 00:00 UTC
(17 minutes ago)
Valid To Jan-23 @ 00:00 UTC
(in 24 hours)
Jan-22 @ 00:00 - Jan-22 @ 07:00
Wind Visibility
310° at 6 knots 10,000+ meters
Clouds
  • No significant clouds
Conditions
Becoming Jan-22 @ 07:00 - Jan-22 @ 13:00
Wind Visibility
220° at 10 knots 10,000+ meters
Clouds
  • No significant clouds
Conditions
Becoming Jan-22 @ 13:00 - Jan-22 @ 15:00
Wind Visibility
220° at 10 knots 1,497 meters
Clouds
  • Vertical visibility at 1,000' AGL
Conditions
  • Snow
Becoming Jan-22 @ 15:00 - Jan-23 @ 00:00
Wind Visibility
360° at 10 knots 10,000+ meters
Clouds
  • No significant clouds
Conditions